createdAt,value
2023-03-04T00:01:48.796Z,6.90
2023-03-04T00:04:38.937Z,6.97
2023-03-04T00:07:28.425Z,5.70
2023-03-04T00:10:19.997Z,6.67
2023-03-04T00:13:09.358Z,7.17
2023-03-04T00:15:58.509Z,6.10
2023-03-04T00:18:48.070Z,6.90
2023-03-04T00:21:37.891Z,6.27
2023-03-04T00:24:27.893Z,5.80
2023-03-04T00:27:18.787Z,6.20
2023-03-04T00:30:10.062Z,6.40
2023-03-04T00:32:59.981Z,6.20
2023-03-04T00:35:50.129Z,6.57
2023-03-04T00:38:40.980Z,6.70
2023-03-04T00:41:31.275Z,6.83
2023-03-04T00:44:22.502Z,5.90
2023-03-04T00:47:12.769Z,6.50
2023-03-04T00:50:02.766Z,6.60
2023-03-04T00:52:53.156Z,7.50
2023-03-04T00:55:42.846Z,5.97
2023-03-04T00:58:32.589Z,6.40
2023-03-04T01:01:24.048Z,6.57
2023-03-04T01:04:14.426Z,6.53
2023-03-04T01:07:06.739Z,7.33
2023-03-04T01:09:56.882Z,6.17
2023-03-04T01:12:47.959Z,5.70
2023-03-04T01:15:37.951Z,7.30
2023-03-04T01:18:30.317Z,7.23
2023-03-04T01:21:19.859Z,7.93
2023-03-04T01:24:09.764Z,6.63
2023-03-04T01:27:00.031Z,6.87
2023-03-04T01:29:49.970Z,7.20
2023-03-04T01:32:39.577Z,7.47
2023-03-04T01:35:31.054Z,7.00
2023-03-04T01:38:20.943Z,6.40
2023-03-04T01:41:10.814Z,7.00
2023-03-04T01:44:02.740Z,7.57
2023-03-04T01:46:55.314Z,7.60
2023-03-04T01:49:59.041Z,6.93
2023-03-04T01:52:50.148Z,6.57
2023-03-04T01:55:40.393Z,7.37
2023-03-04T01:58:32.670Z,6.70
2023-03-04T02:01:23.023Z,7.57
2023-03-04T02:04:14.205Z,8.53
2023-03-04T02:07:05.809Z,6.53
2023-03-04T02:09:57.011Z,6.53
2023-03-04T02:12:50.369Z,6.90
2023-03-04T02:15:41.196Z,8.70
2023-03-04T02:18:32.406Z,8.13
2023-03-04T02:21:25.793Z,8.40
2023-03-04T02:24:19.210Z,7.30
2023-03-04T02:27:12.179Z,7.30
2023-03-04T02:30:02.898Z,7.40
2023-03-04T02:32:53.629Z,6.60
2023-03-04T02:35:46.644Z,7.10
2023-03-04T02:38:37.195Z,7.03
2023-03-04T02:41:29.060Z,6.43
2023-03-04T02:44:23.790Z,7.90
2023-03-04T02:47:18.057Z,6.90
2023-03-04T02:50:09.796Z,6.63
2023-03-04T02:53:01.009Z,8.03
2023-03-04T02:55:51.402Z,6.30
2023-03-04T02:58:44.502Z,6.57
2023-03-04T03:01:51.628Z,6.03
2023-03-04T03:04:43.254Z,5.73
2023-03-04T03:07:36.944Z,7.13
2023-03-04T03:10:28.059Z,8.33
2023-03-04T03:13:19.583Z,6.60
2023-03-04T03:16:09.529Z,6.47
2023-03-04T03:19:02.022Z,6.57
2023-03-04T03:21:52.637Z,6.50
2023-03-04T03:24:43.339Z,6.23
2023-03-04T03:27:33.646Z,7.00
2023-03-04T03:30:24.742Z,6.17
2023-03-04T03:33:14.596Z,4.50
2023-03-04T03:36:06.785Z,7.10
2023-03-04T03:38:57.339Z,7.30
2023-03-04T03:41:47.232Z,6.73
2023-03-04T03:44:37.627Z,6.97
2023-03-04T03:47:28.103Z,6.07
2023-03-04T03:50:18.717Z,7.07
2023-03-04T03:53:10.017Z,6.80
2023-03-04T03:56:00.645Z,6.83
2023-03-04T03:58:50.629Z,6.27
2023-03-04T04:01:40.806Z,6.73
2023-03-04T04:04:31.097Z,5.87
2023-03-04T04:07:21.508Z,8.60
2023-03-04T04:10:15.018Z,9.20
2023-03-04T22:07:21.560Z,3.80
2023-03-04T22:10:11.806Z,3.80
2023-03-04T22:13:00.934Z,3.77
2023-03-04T22:15:50.137Z,3.47
2023-03-04T22:18:40.898Z,3.73
2023-03-04T22:21:30.106Z,4.60
2023-03-04T22:24:21.587Z,3.40
2023-03-04T22:27:10.588Z,3.70
2023-03-04T22:29:59.419Z,4.20
2023-03-04T22:32:49.539Z,4.57
2023-03-04T22:35:40.406Z,4.30
2023-03-04T22:38:29.771Z,3.80
2023-03-04T22:41:21.360Z,3.60
2023-03-04T22:44:10.270Z,4.90
2023-03-04T22:46:59.393Z,3.97
2023-03-04T22:49:48.656Z,4.60
2023-03-04T22:52:38.188Z,4.23
2023-03-04T22:55:27.118Z,3.57
2023-03-04T22:58:17.437Z,3.80
2023-03-04T23:01:06.509Z,3.87
2023-03-04T23:03:55.302Z,3.70
2023-03-04T23:06:44.078Z,3.13
2023-03-04T23:09:32.997Z,5.63
2023-03-04T23:12:21.867Z,4.03
2023-03-04T23:15:13.844Z,4.03
2023-03-04T23:18:02.719Z,4.33
2023-03-04T23:20:51.488Z,3.50
2023-03-04T23:23:41.268Z,4.40
2023-03-04T23:26:32.362Z,4.20
2023-03-04T23:29:21.289Z,4.10
2023-03-04T23:32:11.529Z,4.03
2023-03-04T23:35:00.280Z,3.73
2023-03-04T23:37:50.085Z,4.37
2023-03-04T23:40:39.046Z,4.23
2023-03-04T23:43:30.149Z,3.77
2023-03-04T23:46:19.441Z,5.50
2023-03-04T23:49:10.524Z,5.00
2023-03-04T23:51:59.749Z,4.50
2023-03-04T23:54:49.114Z,2.97
2023-03-04T23:57:38.155Z,3.60
